PDT,Max TemperatureF,Mean TemperatureF,Min TemperatureF,Max Dew PointF,MeanDew PointF,Min DewpointF,Max Humidity, Mean Humidity, Min Humidity, Max Sea Level PressureIn, Mean Sea Level PressureIn, Min Sea Level PressureIn, Max VisibilityMiles, Mean VisibilityMiles, Min VisibilityMiles, Max Wind SpeedMPH, Mean Wind SpeedMPH, Max Gust SpeedMPH,PrecipitationIn, CloudCover, Events, WindDirDegrees
2013-4-1,54,49,44,47,44,39,96,83,63,30.15,30.07,29.98,10,9,1,13,8,,0.00,6,,295
2013-4-2,52,48,46,44,43,40,93,81,68,30.21,30.19,30.17,10,10,10,8,5,,0.00,8,,290
2013-4-3,55,50,46,45,43,40,90,77,59,30.20,30.12,29.98,10,10,10,9,3,,0.00,5,,79
2013-4-4,50,49,48,48,46,43,97,88,80,29.96,29.70,29.58,10,8,2,7,4,,0.08,8,Rain,114
2013-4-5,55,51,48,49,47,44,97,89,77,29.83,29.74,29.65,10,9,1,8,3,,0.03,7,Rain,272
2013-4-6,54,50,45,46,44,39,100,87,59,29.89,29.79,29.60,10,8,2,13,4,17,0.40,7,Rain,199
2013-4-7,52,45,39,43,40,37,93,83,61,29.88,29.69,29.60,10,10,7,15,7,22,0.51,7,Rain,251
2013-4-8,55,48,43,43,41,37,86,75,59,30.26,30.12,29.91,10,10,10,13,8,,0.00,6,,291
2013-4-9,50,46,44,43,42,39,90,83,77,30.33,30.27,30.12,10,10,10,6,3,,0.00,8,Rain,317
2013-4-10,57,50,43,46,41,37,97,79,49,30.25,30.04,29.88,10,8,2,23,7,36,0.33,4,Rain,276
2013-4-11,51,46,41,39,36,32,82,67,50,30.30,30.26,30.19,10,10,10,20,10,28,0.00,3,,291
2013-4-12,44,40,36,39,35,31,89,80,65,30.18,29.92,29.66,10,10,6,21,5,29,0.14,7,Rain,248
2013-4-13,52,46,39,40,37,29,89,79,61,29.99,29.90,29.80,10,9,2,17,12,28,0.35,6,Rain,273
2013-4-14,51,44,37,38,35,32,89,73,52,30.01,29.98,29.95,10,10,10,12,7,,0.00,3,,255
2013-4-15,54,46,37,39,35,32,86,71,53,30.19,30.06,29.95,10,10,9,12,8,,0.01,3,Rain,267
2013-4-16,57,46,35,38,30,21,89,55,25,30.41,30.33,30.21,10,10,10,15,7,,0.00,0,,232
2013-4-17,52,47,43,43,38,27,86,72,52,30.46,30.44,30.40,10,10,10,17,12,22,0.01,6,Rain,285
2013-4-18,48,46,43,46,43,40,96,90,80,30.45,30.37,30.18,10,9,4,8,3,,0.18,8,Rain,69
2013-4-19,51,48,45,48,46,44,97,92,86,30.19,30.12,30.06,10,9,3,16,4,26,0.28,8,Rain,301
2013-4-20,53,48,41,45,43,39,93,84,74,30.28,30.25,30.19,10,10,10,18,9,30,0.00,6,,286
2013-4-21,54,46,37,43,39,34,93,79,59,30.41,30.29,30.24,10,10,10,14,8,22,0.00,5,Rain,278
2013-4-22,57,46,35,39,28,12,89,55,17,30.58,30.50,30.43,10,10,10,16,6,,0.00,0,,214
2013-4-23,57,49,41,39,31,24,79,53,36,30.44,30.34,30.29,10,10,10,16,10,21,0.00,1,,171
2013-4-24,64,52,39,42,36,33,80,54,34,30.34,30.24,30.08,10,10,10,14,8,,0.00,0,,269
2013-4-25,62,50,39,46,43,37,93,77,50,30.17,30.10,30.05,10,10,10,12,7,17,0.00,1,,313
2013-4-26,60,51,43,45,42,38,93,79,46,30.26,30.22,30.17,10,10,10,14,10,24,0.00,2,,295
2013-4-27,54,50,46,48,45,42,97,86,71,30.22,30.19,30.14,10,10,9,12,6,,0.03,7,Rain,267
2013-4-28,52,48,44,45,41,38,89,79,61,30.22,30.14,29.93,10,10,10,13,7,18,0.00,7,Rain,298
2013-4-29,52,46,43,44,36,29,90,67,50,30.18,30.07,29.95,10,10,6,21,15,32,0.05,5,Rain,297
2013-4-30,53,44,37,37,31,20,79,60,28,30.46,30.32,30.18,10,10,10,13,8,20,0.00,2,,285